PWSweather.com
Personal Weather Stations
Station Observations
KMAMEDFI2
Medfield, MA 02052

Medfield, MA 02052

Lat: 42.1900822, Lon: -71.3296889

Elevation: 138

Station Type: Rainwise WS MK-III

http://www.medfieldweather.com

High Low Average
Temperature 70.5°F21.4°C 42.9°F6.1°C 56.5°F13.6°C
Dew Point 64.1°F17.8°C 31.7°F-0.2°C 51.8°F11.0°C
Winds 15.0 mph 24.1 kmh Calm Calm 5.0 mph SW8.0 kmh SW
Wind Gusts 27.6 mph44.4 kmh -- 9.0 mph14.5 kmh
Humidity 98% 61% 85%
Pressure 29.62 in1003.0 mb 29.29 in991.9 mb -
Precipitation 0.94 in23.9 mm - -
Hour Temp Dew Point Humidity Winds Wind Gusts Pressure Precip Precip Rate Daily Precip Total
12:00 AM 58.7°F14.8°C 58.1°F14.5°C 98% Calm Calm 2.3 mph3.7 kmh 29.62 in1003.0 mb - 0.00 in0.0 mm 0.00 in0.0 mm
12:10 AM 58.8°F14.9°C 58.3°F14.6°C 98% 2.3 mph SE3.7 kmh SE 2.3 mph3.7 kmh 29.60 in1002.4 mb - 0.00 in0.0 mm 0.00 in0.0 mm
12:20 AM 58.9°F14.9°C 58.4°F14.7°C 98% 2.3 mph S3.7 kmh S 6.9 mph11.1 kmh 29.60 in1002.4 mb - 0.00 in0.0 mm 0.00 in0.0 mm
12:30 AM 59.0°F15.0°C 58.4°F14.7°C 98% 1.2 mph S1.9 kmh S 3.5 mph5.6 kmh 29.60 in1002.4 mb - 0.00 in0.0 mm 0.00 in0.0 mm
12:40 AM 59.2°F15.1°C 58.6°F14.8°C 98% 2.3 mph S3.7 kmh S 2.3 mph3.7 kmh 29.58 in1001.7 mb - 0.00 in0.0 mm 0.00 in0.0 mm
12:50 AM 59.4°F15.2°C 58.8°F14.9°C 98% 2.3 mph S3.7 kmh S 2.3 mph3.7 kmh 29.60 in1002.4 mb - 0.00 in0.0 mm 0.00 in0.0 mm
01:00 AM 59.6°F15.3°C 59.0°F15.0°C 98% 1.2 mph NW1.9 kmh NW 2.3 mph3.7 kmh 29.59 in1002.0 mb - 0.00 in0.0 mm 0.00 in0.0 mm
01:10 AM 59.8°F15.4°C 59.2°F15.1°C 98% 2.3 mph S3.7 kmh S 2.3 mph3.7 kmh 29.58 in1001.7 mb - 0.00 in0.0 mm 0.00 in0.0 mm
01:20 AM 60.2°F15.7°C 59.6°F15.3°C 98% 2.3 mph SE3.7 kmh SE 2.3 mph3.7 kmh 29.56 in1001.0 mb - 0.00 in0.0 mm 0.00 in0.0 mm
01:30 AM 60.5°F15.8°C 59.9°F15.5°C 98% 3.5 mph SSE5.6 kmh SSE 5.8 mph9.3 kmh 29.55 in1000.7 mb - 0.00 in0.0 mm 0.00 in0.0 mm
01:40 AM 60.8°F16.0°C 60.3°F15.7°C 98% 3.5 mph S5.6 kmh S 2.3 mph3.7 kmh 29.54 in1000.3 mb - 0.00 in0.0 mm 0.00 in0.0 mm
01:50 AM 61.2°F16.2°C 60.6°F15.9°C 98% 2.3 mph SSE3.7 kmh SSE 2.3 mph3.7 kmh 29.52 in999.7 mb - 0.00 in0.0 mm 0.00 in0.0 mm
02:00 AM 61.5°F16.4°C 60.9°F16.1°C 98% 2.3 mph SE3.7 kmh SE 2.3 mph3.7 kmh 29.52 in999.7 mb - 0.00 in0.0 mm 0.00 in0.0 mm
02:10 AM 61.9°F16.6°C 61.3°F16.3°C 98% 2.3 mph SSE3.7 kmh SSE 2.3 mph3.7 kmh 29.52 in999.7 mb - 0.00 in0.0 mm 0.00 in0.0 mm
02:20 AM 62.5°F16.9°C 61.9°F16.6°C 98% 3.5 mph SW5.6 kmh SW 8.1 mph13.0 kmh 29.53 in1000.0 mb - 0.00 in0.0 mm 0.00 in0.0 mm
02:30 AM 62.8°F17.1°C 62.3°F16.8°C 98% 3.5 mph SE5.6 kmh SE 10.4 mph16.7 kmh 29.51 in999.3 mb - 0.00 in0.0 mm 0.00 in0.0 mm
02:40 AM 63.1°F17.3°C 62.6°F17.0°C 98% 5.8 mph SW9.3 kmh SW 10.4 mph16.7 kmh 29.50 in999.0 mb - 0.00 in0.0 mm 0.00 in0.0 mm
02:50 AM 63.4°F17.4°C 62.9°F17.2°C 98% 4.6 mph S7.4 kmh S 8.1 mph13.0 kmh 29.49 in998.6 mb - 0.00 in0.0 mm 0.00 in0.0 mm
03:00 AM 63.6°F17.6°C 63.1°F17.3°C 98% 4.6 mph S7.4 kmh S 6.9 mph11.1 kmh 29.48 in998.3 mb - 0.00 in0.0 mm 0.00 in0.0 mm
03:10 AM 63.7°F17.6°C 63.2°F17.3°C 98% 3.5 mph SE5.6 kmh SE 6.9 mph11.1 kmh 29.48 in998.3 mb - 0.00 in0.0 mm 0.00 in0.0 mm
03:20 AM 63.9°F17.7°C 63.3°F17.4°C 98% 2.3 mph SE3.7 kmh SE 5.8 mph9.3 kmh 29.47 in998.0 mb - 0.00 in0.0 mm 0.00 in0.0 mm
03:30 AM 63.9°F17.7°C 63.4°F17.4°C 98% 3.5 mph S5.6 kmh S 2.3 mph3.7 kmh 29.46 in997.6 mb - 0.00 in0.0 mm 0.00 in0.0 mm
03:40 AM 63.9°F17.7°C 63.4°F17.4°C 98% 2.3 mph S3.7 kmh S 6.9 mph11.1 kmh 29.44 in997.0 mb - 0.00 in0.0 mm 0.00 in0.0 mm
03:50 AM 64.1°F17.8°C 63.6°F17.6°C 98% 4.6 mph SE7.4 kmh SE 8.1 mph13.0 kmh 29.46 in997.6 mb - 0.00 in0.0 mm 0.00 in0.0 mm
04:00 AM 64.0°F17.8°C 63.5°F17.5°C 98% 4.6 mph SE7.4 kmh SE 8.1 mph13.0 kmh 29.45 in997.3 mb - 0.00 in0.0 mm 0.00 in0.0 mm
04:10 AM 64.1°F17.8°C 63.6°F17.6°C 98% 3.5 mph SSE5.6 kmh SSE 3.5 mph5.6 kmh 29.46 in997.6 mb - 0.00 in0.0 mm 0.00 in0.0 mm
04:20 AM 64.1°F17.8°C 63.6°F17.6°C 98% 3.5 mph SE5.6 kmh SE 3.5 mph5.6 kmh 29.44 in997.0 mb - 0.00 in0.0 mm 0.00 in0.0 mm
04:30 AM 64.1°F17.8°C 63.6°F17.6°C 98% 3.5 mph SE5.6 kmh SE 2.3 mph3.7 kmh 29.43 in996.6 mb - 0.01 in0.3 mm 0.01 in0.3 mm
04:40 AM 64.1°F17.8°C 63.6°F17.6°C 98% 4.6 mph S7.4 kmh S 6.9 mph11.1 kmh 29.41 in995.9 mb - 0.01 in0.3 mm 0.01 in0.3 mm
04:50 AM 64.1°F17.8°C 63.6°F17.6°C 98% 3.5 mph SE5.6 kmh SE 5.8 mph9.3 kmh 29.40 in995.6 mb - 0.01 in0.3 mm 0.01 in0.3 mm
05:00 AM 64.1°F17.8°C 63.6°F17.6°C 98% 3.5 mph SSE5.6 kmh SSE 5.8 mph9.3 kmh 29.39 in995.3 mb - 0.01 in0.3 mm 0.01 in0.3 mm
05:10 AM 64.1°F17.8°C 63.6°F17.6°C 98% 4.6 mph SSW7.4 kmh SSW 8.1 mph13.0 kmh 29.39 in995.3 mb - 0.01 in0.3 mm 0.01 in0.3 mm
05:20 AM 64.3°F17.9°C 63.8°F17.7°C 98% 4.6 mph W7.4 kmh W 5.8 mph9.3 kmh 29.38 in994.9 mb - 0.01 in0.3 mm 0.01 in0.3 mm
05:30 AM 64.4°F18.0°C 63.8°F17.7°C 98% 3.5 mph SSE5.6 kmh SSE 5.8 mph9.3 kmh 29.39 in995.3 mb - 0.12 in3.0 mm 0.13 in3.3 mm
05:40 AM 64.5°F18.1°C 63.9°F17.7°C 98% 3.5 mph S5.6 kmh S 5.8 mph9.3 kmh 29.39 in995.3 mb - 0.14 in3.6 mm 0.15 in3.8 mm
05:50 AM 64.6°F18.1°C 64.1°F17.8°C 98% 4.6 mph W7.4 kmh W 5.8 mph9.3 kmh 29.41 in995.9 mb - 0.25 in6.4 mm 0.26 in6.6 mm
06:00 AM 64.7°F18.2°C 64.1°F17.8°C 98% 6.9 mph NW11.1 kmh NW 15.0 mph24.1 kmh 29.43 in996.6 mb - 0.48 in12.2 mm 0.49 in12.4 mm
06:10 AM 59.0°F15.0°C 58.4°F14.7°C 98% 6.9 mph WNW11.1 kmh WNW 16.1 mph25.9 kmh 29.46 in997.6 mb - 0.57 in14.5 mm 0.58 in14.7 mm
06:20 AM 57.2°F14.0°C 56.4°F13.6°C 97% 2.3 mph S3.7 kmh S 3.5 mph5.6 kmh 29.45 in997.3 mb - 0.61 in15.5 mm 0.62 in15.7 mm
06:30 AM 56.5°F13.6°C 55.7°F13.2°C 97% 4.6 mph NW7.4 kmh NW 5.8 mph9.3 kmh 29.45 in997.3 mb - 0.51 in13.0 mm 0.64 in16.3 mm
06:40 AM 56.3°F13.5°C 55.5°F13.1°C 97% 3.5 mph SW5.6 kmh SW 2.3 mph3.7 kmh 29.45 in997.3 mb - 0.52 in13.2 mm 0.67 in17.0 mm
06:50 AM 56.1°F13.4°C 55.3°F12.9°C 97% 3.5 mph WSW5.6 kmh WSW 5.8 mph9.3 kmh 29.46 in997.6 mb - 0.48 in12.2 mm 0.70 in17.8 mm
07:00 AM 55.9°F13.3°C 55.1°F12.8°C 97% 1.2 mph ENE1.9 kmh ENE -- 29.45 in997.3 mb - 0.24 in6.1 mm 0.72 in18.3 mm
07:10 AM 55.9°F13.3°C 55.1°F12.8°C 97% Calm Calm -- 29.42 in996.3 mb - 0.15 in3.8 mm 0.72 in18.3 mm
07:20 AM 56.2°F13.4°C 55.4°F13.0°C 97% 1.2 mph SW1.9 kmh SW 1.2 mph1.9 kmh 29.41 in995.9 mb - 0.11 in2.8 mm 0.73 in18.5 mm
07:30 AM 56.3°F13.5°C 55.5°F13.1°C 97% 2.3 mph SE3.7 kmh SE 2.3 mph3.7 kmh 29.40 in995.6 mb - 0.09 in2.3 mm 0.73 in18.5 mm
07:40 AM 56.4°F13.6°C 55.6°F13.1°C 97% 2.3 mph SE3.7 kmh SE 2.3 mph3.7 kmh 29.36 in994.2 mb - 0.06 in1.5 mm 0.73 in18.5 mm
07:50 AM 56.5°F13.6°C 55.7°F13.2°C 97% 2.3 mph WSW3.7 kmh WSW 2.3 mph3.7 kmh 29.37 in994.6 mb - 0.04 in1.0 mm 0.74 in18.8 mm
08:00 AM 56.6°F13.7°C 55.8°F13.2°C 97% 2.3 mph SE3.7 kmh SE 2.3 mph3.7 kmh 29.38 in994.9 mb - 0.02 in0.5 mm 0.74 in18.8 mm
08:10 AM 57.1°F13.9°C 56.3°F13.5°C 97% Calm Calm 2.3 mph3.7 kmh 29.36 in994.2 mb - 0.02 in0.5 mm 0.74 in18.8 mm
08:20 AM 57.5°F14.2°C 56.7°F13.7°C 97% 1.2 mph SW1.9 kmh SW 2.3 mph3.7 kmh 29.36 in994.2 mb - 0.01 in0.3 mm 0.74 in18.8 mm
08:30 AM 57.7°F14.3°C 56.9°F13.8°C 97% 2.3 mph SE3.7 kmh SE 2.3 mph3.7 kmh 29.37 in994.6 mb - 0.01 in0.3 mm 0.74 in18.8 mm
08:40 AM 57.6°F14.2°C 56.8°F13.8°C 97% 2.3 mph SE3.7 kmh SE 2.3 mph3.7 kmh 29.34 in993.6 mb - 0.01 in0.3 mm 0.74 in18.8 mm
08:50 AM 57.3°F14.1°C 56.5°F13.6°C 97% 3.5 mph SE5.6 kmh SE 2.3 mph3.7 kmh 29.35 in993.9 mb - 0.00 in0.0 mm 0.74 in18.8 mm
09:00 AM 57.7°F14.3°C 56.8°F13.8°C 97% 4.6 mph SE7.4 kmh SE 5.8 mph9.3 kmh 29.36 in994.2 mb - 0.00 in0.0 mm 0.74 in18.8 mm
09:10 AM 57.8°F14.3°C 57.0°F13.9°C 97% 5.8 mph ESE9.3 kmh ESE 6.9 mph11.1 kmh 29.35 in993.9 mb - 0.00 in0.0 mm 0.74 in18.8 mm
09:20 AM 58.2°F14.6°C 57.6°F14.2°C 98% 2.3 mph E3.7 kmh E 2.3 mph3.7 kmh 29.35 in993.9 mb - 0.00 in0.0 mm 0.74 in18.8 mm
09:30 AM 59.2°F15.1°C 58.6°F14.8°C 98% 4.6 mph SE7.4 kmh SE 8.1 mph13.0 kmh 29.36 in994.2 mb - 0.00 in0.0 mm 0.74 in18.8 mm
09:40 AM 60.2°F15.7°C 59.6°F15.3°C 98% 2.3 mph SSW3.7 kmh SSW 5.8 mph9.3 kmh 29.37 in994.6 mb - 0.00 in0.0 mm 0.74 in18.8 mm
09:50 AM 60.3°F15.7°C 59.8°F15.4°C 98% 2.3 mph SE3.7 kmh SE 8.1 mph13.0 kmh 29.38 in994.9 mb - 0.00 in0.0 mm 0.74 in18.8 mm
10:00 AM 59.3°F15.2°C 58.8°F14.9°C 98% 4.6 mph ESE7.4 kmh ESE 5.8 mph9.3 kmh 29.34 in993.6 mb - 0.00 in0.0 mm 0.74 in18.8 mm
10:10 AM 59.1°F15.1°C 58.5°F14.7°C 98% 3.5 mph S5.6 kmh S 2.3 mph3.7 kmh 29.35 in993.9 mb - 0.00 in0.0 mm 0.74 in18.8 mm
10:20 AM 59.8°F15.4°C 59.2°F15.1°C 98% 2.3 mph SW3.7 kmh SW 2.3 mph3.7 kmh 29.35 in993.9 mb - 0.00 in0.0 mm 0.74 in18.8 mm
10:30 AM 59.9°F15.5°C 59.0°F15.0°C 97% 2.3 mph SE3.7 kmh SE 2.3 mph3.7 kmh 29.38 in994.9 mb - 0.00 in0.0 mm 0.74 in18.8 mm
10:40 AM 60.2°F15.7°C 59.1°F15.1°C 96% 4.6 mph SE7.4 kmh SE 5.8 mph9.3 kmh 29.36 in994.2 mb - 0.00 in0.0 mm 0.74 in18.8 mm
10:50 AM 60.7°F15.9°C 59.0°F15.0°C 94% 3.5 mph SW5.6 kmh SW 5.8 mph9.3 kmh 29.36 in994.2 mb - 0.00 in0.0 mm 0.74 in18.8 mm
11:00 AM 61.5°F16.4°C 59.2°F15.1°C 92% 5.8 mph SSW9.3 kmh SSW 5.8 mph9.3 kmh 29.36 in994.2 mb - 0.00 in0.0 mm 0.74 in18.8 mm
11:10 AM 61.6°F16.4°C 59.2°F15.1°C 92% 3.5 mph WSW5.6 kmh WSW 3.5 mph5.6 kmh 29.33 in993.2 mb - 0.00 in0.0 mm 0.74 in18.8 mm
11:20 AM 61.9°F16.6°C 58.9°F14.9°C 90% 3.5 mph SE5.6 kmh SE 2.3 mph3.7 kmh 29.33 in993.2 mb - 0.00 in0.0 mm 0.74 in18.8 mm
11:30 AM 63.2°F17.3°C 58.9°F14.9°C 86% 3.5 mph SW5.6 kmh SW 5.8 mph9.3 kmh 29.33 in993.2 mb - 0.00 in0.0 mm 0.74 in18.8 mm
11:40 AM 64.7°F18.2°C 59.4°F15.2°C 83% 3.5 mph SSE5.6 kmh SSE 2.3 mph3.7 kmh 29.32 in992.9 mb - 0.00 in0.0 mm 0.74 in18.8 mm
11:50 AM 65.0°F18.3°C 59.4°F15.2°C 82% 3.5 mph S5.6 kmh S 5.8 mph9.3 kmh 29.32 in992.9 mb - 0.00 in0.0 mm 0.74 in18.8 mm
12:00 PM 65.3°F18.5°C 59.0°F15.0°C 80% 3.5 mph NW5.6 kmh NW 5.8 mph9.3 kmh 29.31 in992.6 mb - 0.00 in0.0 mm 0.74 in18.8 mm
12:10 PM 66.1°F18.9°C 59.4°F15.2°C 79% 2.3 mph SSE3.7 kmh SSE 5.8 mph9.3 kmh 29.31 in992.6 mb - 0.00 in0.0 mm 0.74 in18.8 mm
12:20 PM 66.8°F19.3°C 57.8°F14.3°C 73% 5.8 mph SSW9.3 kmh SSW 10.4 mph16.7 kmh 29.30 in992.2 mb - 0.00 in0.0 mm 0.74 in18.8 mm
12:30 PM 67.4°F19.7°C 58.0°F14.4°C 72% 4.6 mph S7.4 kmh S 8.1 mph13.0 kmh 29.30 in992.2 mb - 0.00 in0.0 mm 0.74 in18.8 mm
12:40 PM 67.2°F19.6°C 58.2°F14.6°C 73% 3.5 mph ENE5.6 kmh ENE 3.5 mph5.6 kmh 29.30 in992.2 mb - 0.00 in0.0 mm 0.74 in18.8 mm
12:50 PM 67.7°F19.8°C 58.0°F14.4°C 71% 4.6 mph WSW7.4 kmh WSW 9.2 mph14.8 kmh 29.30 in992.2 mb - 0.00 in0.0 mm 0.74 in18.8 mm
01:00 PM 68.7°F20.4°C 57.7°F14.3°C 68% 5.8 mph WSW9.3 kmh WSW 8.1 mph13.0 kmh 29.29 in991.9 mb - 0.00 in0.0 mm 0.74 in18.8 mm
01:10 PM 70.5°F21.4°C 58.2°F14.6°C 65% 3.5 mph SW5.6 kmh SW 3.5 mph5.6 kmh 29.29 in991.9 mb - 0.00 in0.0 mm 0.74 in18.8 mm
01:20 PM 69.5°F20.8°C 55.4°F13.0°C 61% 5.8 mph NNW9.3 kmh NNW 8.1 mph13.0 kmh 29.29 in991.9 mb - 0.00 in0.0 mm 0.74 in18.8 mm
01:30 PM 68.6°F20.3°C 55.1°F12.8°C 62% 6.9 mph WSW11.1 kmh WSW 9.2 mph14.8 kmh 29.29 in991.9 mb - 0.00 in0.0 mm 0.74 in18.8 mm
01:40 PM 67.3°F19.6°C 55.2°F12.9°C 65% 5.8 mph W9.3 kmh W 10.4 mph16.7 kmh 29.29 in991.9 mb - 0.00 in0.0 mm 0.74 in18.8 mm
01:50 PM 61.6°F16.4°C 59.3°F15.2°C 92% 9.2 mph WSW14.8 kmh WSW 16.1 mph25.9 kmh 29.31 in992.6 mb - 0.10 in2.5 mm 0.84 in21.3 mm
02:00 PM 59.9°F15.5°C 59.0°F15.0°C 97% 4.6 mph SE7.4 kmh SE 11.5 mph18.5 kmh 29.30 in992.2 mb - 0.13 in3.3 mm 0.87 in22.1 mm
02:10 PM 59.7°F15.4°C 59.1°F15.1°C 98% 3.5 mph W5.6 kmh W 8.1 mph13.0 kmh 29.30 in992.2 mb - 0.17 in4.3 mm 0.91 in23.1 mm
02:20 PM 57.1°F13.9°C 56.0°F13.3°C 96% 10.4 mph W16.7 kmh W 18.4 mph29.6 kmh 29.32 in992.9 mb - 0.19 in4.8 mm 0.93 in23.6 mm
02:30 PM 55.3°F12.9°C 54.2°F12.3°C 96% 8.1 mph WSW13.0 kmh WSW 11.5 mph18.5 kmh 29.32 in992.9 mb - 0.19 in4.8 mm 0.93 in23.6 mm
02:40 PM 54.3°F12.4°C 53.5°F11.9°C 97% 5.8 mph WSW9.3 kmh WSW 6.9 mph11.1 kmh 29.32 in992.9 mb - 0.19 in4.8 mm 0.93 in23.6 mm
02:50 PM 54.1°F12.3°C 53.3°F11.8°C 97% 4.6 mph WSW7.4 kmh WSW 2.3 mph3.7 kmh 29.31 in992.6 mb - 0.11 in2.8 mm 0.94 in23.9 mm
03:00 PM 54.1°F12.3°C 53.3°F11.8°C 97% 4.6 mph W7.4 kmh W 10.4 mph16.7 kmh 29.31 in992.6 mb - 0.07 in1.8 mm 0.94 in23.9 mm
03:10 PM 53.9°F12.2°C 53.1°F11.7°C 97% 2.3 mph SW3.7 kmh SW 2.3 mph3.7 kmh 29.31 in992.6 mb - 0.04 in1.0 mm 0.94 in23.9 mm
03:20 PM 54.2°F12.3°C 53.3°F11.8°C 97% 9.2 mph W14.8 kmh W 11.5 mph18.5 kmh 29.31 in992.6 mb - 0.01 in0.3 mm 0.94 in23.9 mm
03:30 PM 56.1°F13.4°C 54.1°F12.3°C 93% 9.2 mph W14.8 kmh W 16.1 mph25.9 kmh 29.31 in992.6 mb - 0.01 in0.3 mm 0.94 in23.9 mm
03:40 PM 57.0°F13.9°C 54.1°F12.3°C 90% 6.9 mph W11.1 kmh W 6.9 mph11.1 kmh 29.31 in992.6 mb - 0.01 in0.3 mm 0.94 in23.9 mm
03:50 PM 56.4°F13.6°C 53.5°F11.9°C 90% 5.8 mph W9.3 kmh W 11.5 mph18.5 kmh 29.32 in992.9 mb - 0.00 in0.0 mm 0.94 in23.9 mm
04:00 PM 55.6°F13.1°C 52.1°F11.2°C 88% 13.8 mph WSW22.2 kmh WSW 21.9 mph35.2 kmh 29.33 in993.2 mb - 0.00 in0.0 mm 0.94 in23.9 mm
04:10 PM 54.9°F12.7°C 50.5°F10.3°C 85% 10.4 mph WSW16.7 kmh WSW 16.1 mph25.9 kmh 29.34 in993.6 mb - 0.00 in0.0 mm 0.94 in23.9 mm
04:20 PM 53.8°F12.1°C 47.5°F8.6°C 79% 12.7 mph WNW20.4 kmh WNW 18.4 mph29.6 kmh 29.36 in994.2 mb - 0.00 in0.0 mm 0.94 in23.9 mm
04:30 PM 52.9°F11.6°C 46.3°F7.9°C 78% 11.5 mph WSW18.5 kmh WSW 18.4 mph29.6 kmh 29.36 in994.2 mb - 0.00 in0.0 mm 0.94 in23.9 mm
04:40 PM 52.7°F11.5°C 45.0°F7.2°C 75% 11.5 mph WSW18.5 kmh WSW 16.1 mph25.9 kmh 29.37 in994.6 mb - 0.00 in0.0 mm 0.94 in23.9 mm
04:50 PM 52.5°F11.4°C 43.3°F6.3°C 71% 8.1 mph WSW13.0 kmh WSW 10.4 mph16.7 kmh 29.38 in994.9 mb - 0.00 in0.0 mm 0.94 in23.9 mm
05:00 PM 52.1°F11.2°C 43.4°F6.3°C 72% 8.1 mph W13.0 kmh W 15.0 mph24.1 kmh 29.38 in994.9 mb - 0.00 in0.0 mm 0.94 in23.9 mm
05:10 PM 51.8°F11.0°C 41.9°F5.5°C 69% 9.2 mph WSW14.8 kmh WSW 16.1 mph25.9 kmh 29.39 in995.3 mb - 0.00 in0.0 mm 0.94 in23.9 mm
05:20 PM 51.4°F10.8°C 41.2°F5.1°C 68% 8.1 mph W13.0 kmh W 11.5 mph18.5 kmh 29.40 in995.6 mb - 0.00 in0.0 mm 0.94 in23.9 mm
05:30 PM 50.9°F10.5°C 41.9°F5.5°C 71% 6.9 mph SW11.1 kmh SW 9.2 mph14.8 kmh 29.40 in995.6 mb - 0.00 in0.0 mm 0.94 in23.9 mm
05:40 PM 50.7°F10.4°C 40.5°F4.7°C 68% 11.5 mph W18.5 kmh W 11.5 mph18.5 kmh 29.41 in995.9 mb - 0.00 in0.0 mm 0.94 in23.9 mm
05:50 PM 50.6°F10.3°C 40.4°F4.7°C 68% 6.9 mph W11.1 kmh W 18.4 mph29.6 kmh 29.42 in996.3 mb - 0.00 in0.0 mm 0.94 in23.9 mm
06:00 PM 50.6°F10.3°C 40.4°F4.7°C 68% 11.5 mph WSW18.5 kmh WSW 27.6 mph44.4 kmh 29.42 in996.3 mb - 0.00 in0.0 mm 0.94 in23.9 mm
06:10 PM 49.9°F9.9°C 39.4°F4.1°C 67% 6.9 mph W11.1 kmh W 16.1 mph25.9 kmh 29.43 in996.6 mb - 0.00 in0.0 mm 0.94 in23.9 mm
06:20 PM 49.6°F9.8°C 39.5°F4.2°C 68% 8.1 mph WSW13.0 kmh WSW 16.1 mph25.9 kmh 29.44 in997.0 mb - 0.00 in0.0 mm 0.94 in23.9 mm
06:30 PM 49.5°F9.7°C 39.4°F4.1°C 68% 9.2 mph WSW14.8 kmh WSW 9.2 mph14.8 kmh 29.45 in997.3 mb - 0.00 in0.0 mm 0.94 in23.9 mm
06:40 PM 49.5°F9.7°C 39.0°F3.9°C 67% 9.2 mph W14.8 kmh W 13.8 mph22.2 kmh 29.46 in997.6 mb - 0.00 in0.0 mm 0.94 in23.9 mm
06:50 PM 49.2°F9.6°C 38.7°F3.7°C 67% 9.2 mph W14.8 kmh W 19.6 mph31.5 kmh 29.46 in997.6 mb - 0.00 in0.0 mm 0.94 in23.9 mm
07:00 PM 48.4°F9.1°C 36.7°F2.6°C 64% 5.8 mph WSW9.3 kmh WSW 8.1 mph13.0 kmh 29.47 in998.0 mb - 0.00 in0.0 mm 0.94 in23.9 mm
07:10 PM 47.8°F8.8°C 36.2°F2.3°C 64% 9.2 mph W14.8 kmh W 11.5 mph18.5 kmh 29.49 in998.6 mb - 0.00 in0.0 mm 0.94 in23.9 mm
07:20 PM 47.4°F8.6°C 35.8°F2.1°C 64% 10.4 mph W16.7 kmh W 11.5 mph18.5 kmh 29.50 in999.0 mb - 0.00 in0.0 mm 0.94 in23.9 mm
07:30 PM 47.2°F8.4°C 36.0°F2.2°C 65% 9.2 mph WSW14.8 kmh WSW 15.0 mph24.1 kmh 29.51 in999.3 mb - 0.00 in0.0 mm 0.94 in23.9 mm
07:40 PM 46.8°F8.2°C 36.0°F2.2°C 66% 9.2 mph W14.8 kmh W 16.1 mph25.9 kmh 29.51 in999.3 mb - 0.00 in0.0 mm 0.94 in23.9 mm
07:50 PM 46.5°F8.1°C 35.7°F2.1°C 66% 10.4 mph WSW16.7 kmh WSW 10.4 mph16.7 kmh 29.50 in999.0 mb - 0.00 in0.0 mm 0.94 in23.9 mm
08:00 PM 46.2°F7.9°C 36.2°F2.3°C 68% 5.8 mph WSW9.3 kmh WSW 9.2 mph14.8 kmh 29.50 in999.0 mb - 0.00 in0.0 mm 0.94 in23.9 mm
08:10 PM 45.9°F7.7°C 35.6°F2.0°C 67% 6.9 mph WSW11.1 kmh WSW 9.2 mph14.8 kmh 29.51 in999.3 mb - 0.00 in0.0 mm 0.94 in23.9 mm
08:20 PM 45.8°F7.7°C 35.5°F1.9°C 67% 5.8 mph WNW9.3 kmh WNW 11.5 mph18.5 kmh 29.52 in999.7 mb - 0.00 in0.0 mm 0.94 in23.9 mm
08:30 PM 45.8°F7.7°C 35.5°F1.9°C 67% 5.8 mph WSW9.3 kmh WSW 13.8 mph22.2 kmh 29.52 in999.7 mb - 0.00 in0.0 mm 0.94 in23.9 mm
08:40 PM 45.6°F7.6°C 35.6°F2.0°C 68% 6.9 mph WSW11.1 kmh WSW 11.5 mph18.5 kmh 29.52 in999.7 mb - 0.00 in0.0 mm 0.94 in23.9 mm
08:50 PM 45.5°F7.5°C 35.5°F1.9°C 68% 6.9 mph WSW11.1 kmh WSW 16.1 mph25.9 kmh 29.53 in1000.0 mb - 0.00 in0.0 mm 0.94 in23.9 mm
09:00 PM 45.4°F7.4°C 35.5°F1.9°C 68% 4.6 mph WSW7.4 kmh WSW 9.2 mph14.8 kmh 29.54 in1000.3 mb - 0.00 in0.0 mm 0.94 in23.9 mm
09:10 PM 45.3°F7.4°C 35.7°F2.1°C 69% 5.8 mph NW9.3 kmh NW 5.8 mph9.3 kmh 29.54 in1000.3 mb - 0.00 in0.0 mm 0.94 in23.9 mm
09:20 PM 45.2°F7.3°C 35.3°F1.8°C 68% 10.4 mph WSW16.7 kmh WSW 17.3 mph27.8 kmh 29.54 in1000.3 mb - 0.00 in0.0 mm 0.94 in23.9 mm
09:30 PM 45.3°F7.4°C 35.3°F1.8°C 68% 10.4 mph W16.7 kmh W 23.0 mph37.0 kmh 29.56 in1001.0 mb - 0.00 in0.0 mm 0.94 in23.9 mm
09:40 PM 45.1°F7.3°C 35.2°F1.8°C 68% 9.2 mph W14.8 kmh W 15.0 mph24.1 kmh 29.57 in1001.4 mb - 0.00 in0.0 mm 0.94 in23.9 mm
09:50 PM 44.9°F7.2°C 35.0°F1.7°C 68% 8.1 mph NW13.0 kmh NW 16.1 mph25.9 kmh 29.58 in1001.7 mb - 0.00 in0.0 mm 0.94 in23.9 mm
10:00 PM 44.8°F7.1°C 35.2°F1.8°C 69% 5.8 mph WSW9.3 kmh WSW 13.8 mph22.2 kmh 29.58 in1001.7 mb - 0.00 in0.0 mm 0.94 in23.9 mm
10:10 PM 44.7°F7.1°C 34.0°F1.1°C 66% 4.6 mph WSW7.4 kmh WSW 8.1 mph13.0 kmh 29.58 in1001.7 mb - 0.00 in0.0 mm 0.94 in23.9 mm
10:20 PM 44.4°F6.9°C 33.3°F0.7°C 65% 11.5 mph WNW18.5 kmh WNW 11.5 mph18.5 kmh 29.58 in1001.7 mb - 0.00 in0.0 mm 0.94 in23.9 mm
10:30 PM 44.4°F6.9°C 33.0°F0.6°C 64% 11.5 mph W18.5 kmh W 18.4 mph29.6 kmh 29.59 in1002.0 mb - 0.00 in0.0 mm 0.94 in23.9 mm
10:40 PM 44.2°F6.8°C 33.6°F0.9°C 66% 15.0 mph W24.1 kmh W 16.1 mph25.9 kmh 29.59 in1002.0 mb - 0.00 in0.0 mm 0.94 in23.9 mm
10:50 PM 44.1°F6.7°C 33.4°F0.8°C 66% 6.9 mph W11.1 kmh W 10.4 mph16.7 kmh 29.60 in1002.4 mb - 0.00 in0.0 mm 0.94 in23.9 mm
11:00 PM 43.7°F6.5°C 33.8°F1.0°C 68% 5.8 mph WSW9.3 kmh WSW 8.1 mph13.0 kmh 29.61 in1002.7 mb - 0.00 in0.0 mm 5.72 in145.3 mm
11:10 PM 43.4°F6.3°C 33.5°F0.8°C 68% 3.5 mph W5.6 kmh W 9.2 mph14.8 kmh 29.61 in1002.7 mb - 0.00 in0.0 mm 5.72 in145.3 mm
11:20 PM 43.1°F6.2°C 32.1°F0.1°C 65% 5.8 mph WSW9.3 kmh WSW 8.1 mph13.0 kmh 29.60 in1002.4 mb - 0.00 in0.0 mm 5.72 in145.3 mm
11:30 PM 43.2°F6.2°C 31.8°F-0.1°C 64% 11.5 mph WSW18.5 kmh WSW 23.0 mph37.0 kmh 29.61 in1002.7 mb - 0.00 in0.0 mm 5.72 in145.3 mm
11:40 PM 43.1°F6.2°C 31.7°F-0.2°C 64% 9.2 mph NW14.8 kmh NW 10.4 mph16.7 kmh 29.61 in1002.7 mb - 0.00 in0.0 mm 5.72 in145.3 mm
11:50 PM 42.9°F6.1°C 31.9°F-0.1°C 65% 12.7 mph WSW20.4 kmh WSW 16.1 mph25.9 kmh 29.61 in1002.7 mb - 0.00 in0.0 mm 5.72 in145.3 mm